createdAt,value
2019-02-26T00:05:21.427Z,99.90
2019-02-26T00:08:19.477Z,99.90
2019-02-26T00:11:06.684Z,99.90
2019-02-26T00:13:50.753Z,99.90
2019-02-26T00:16:37.673Z,99.90
2019-02-26T00:19:17.102Z,99.90
2019-02-26T00:21:58.832Z,99.90
2019-02-26T00:24:42.656Z,99.90
2019-02-26T00:27:26.257Z,99.90
2019-02-26T00:30:09.596Z,99.90
2019-02-26T00:32:53.255Z,99.90
2019-02-26T00:35:35.643Z,99.90
2019-02-26T00:38:18.194Z,99.90
2019-02-26T00:41:02.212Z,99.90
2019-02-26T00:43:44.414Z,99.90
2019-02-26T00:46:27.876Z,99.90
2019-02-26T00:49:10.347Z,99.90
2019-02-26T00:51:52.867Z,99.90
2019-02-26T00:54:36.437Z,99.90
2019-02-26T00:57:18.541Z,99.90
2019-02-26T01:00:02.867Z,99.90
2019-02-26T01:02:43.918Z,99.90
2019-02-26T01:05:25.979Z,99.90
2019-02-26T01:08:10.525Z,99.90
2019-02-26T01:10:51.882Z,99.90
2019-02-26T01:13:33.987Z,99.90
2019-02-26T01:16:16.038Z,99.90
2019-02-26T01:18:57.827Z,99.90
2019-02-26T01:21:39.763Z,99.90
2019-02-26T01:24:24.319Z,99.90
2019-02-26T01:27:06.182Z,99.90
2019-02-26T01:29:51.223Z,99.90
2019-02-26T01:32:32.238Z,99.90
2019-02-26T01:35:13.982Z,99.90
2019-02-26T01:37:58.104Z,99.90
2019-02-26T01:40:43.606Z,99.90
2019-02-26T01:43:23.669Z,99.90
2019-02-26T01:49:28.520Z,99.90
2019-02-26T01:52:11.090Z,99.90
2019-02-26T01:54:55.823Z,99.90
2019-02-26T01:57:37.567Z,99.90
2019-02-26T02:00:19.207Z,99.90
2019-02-26T02:03:01.306Z,99.90
2019-02-26T02:05:45.691Z,99.90
2019-02-26T02:08:26.630Z,99.90
2019-02-26T02:11:09.354Z,99.90
2019-02-26T02:13:51.639Z,99.90
2019-02-26T02:16:33.625Z,99.90
2019-02-26T02:19:19.927Z,99.90
2019-02-26T02:21:59.768Z,99.90
2019-02-26T02:24:44.499Z,99.90
2019-02-26T02:27:28.129Z,99.90
2019-02-26T02:30:14.254Z,99.90
2019-02-26T02:32:56.499Z,99.90
2019-02-26T02:35:37.105Z,99.90
2019-02-26T02:38:20.406Z,99.90
2019-02-26T02:41:02.625Z,99.90
2019-02-26T02:43:44.798Z,99.90
2019-02-26T02:46:26.672Z,99.90
2019-02-26T02:49:09.810Z,99.90
2019-02-26T02:51:52.408Z,99.90
2019-02-26T02:54:34.203Z,99.90
2019-02-26T02:57:16.334Z,99.90
2019-02-26T02:59:59.834Z,99.90
2019-02-26T03:02:43.372Z,99.90
2019-02-26T03:05:25.203Z,99.90
2019-02-26T03:08:08.087Z,99.90
2019-02-26T03:10:51.019Z,99.90
2019-02-26T03:13:33.075Z,99.90
2019-02-26T03:16:15.944Z,99.90
2019-02-26T03:18:58.706Z,99.90
2019-02-26T03:21:42.135Z,99.90
2019-02-26T03:24:26.283Z,99.90
2019-02-26T03:27:08.458Z,99.90
2019-02-26T03:29:52.385Z,99.90
2019-02-26T03:32:36.418Z,99.90
2019-02-26T03:35:19.671Z,99.90
2019-02-26T03:38:03.626Z,99.90
2019-02-26T03:40:45.058Z,99.90
2019-02-26T03:43:28.626Z,99.90
2019-02-26T03:49:02.359Z,99.90
2019-02-26T03:51:59.438Z,99.90
2019-02-26T03:54:48.002Z,99.90
2019-02-26T03:57:32.483Z,99.90
2019-02-26T04:00:16.744Z,99.90
2019-02-26T04:02:58.884Z,99.90
2019-02-26T04:05:40.869Z,99.90
2019-02-26T04:08:24.303Z,99.90
2019-02-26T04:11:06.900Z,99.90
2019-02-26T04:13:51.581Z,95.30
2019-02-26T04:16:35.157Z,87.60
2019-02-26T04:19:16.174Z,77.10
2019-02-26T04:21:58.221Z,76.80
2019-02-26T04:24:40.182Z,77.60
2019-02-26T04:27:48.690Z,78.50
2019-02-26T04:30:58.687Z,74.90
2019-02-26T04:33:42.535Z,78.40
2019-02-26T04:36:24.200Z,70.60
2019-02-26T04:39:07.646Z,76.20
2019-02-26T04:41:50.794Z,73.90
2019-02-26T04:44:34.282Z,75.40
2019-02-26T04:47:18.377Z,77.00
2019-02-26T04:50:02.816Z,70.60
2019-02-26T04:52:44.570Z,67.00
2019-02-26T04:55:29.113Z,62.50
2019-02-26T04:58:12.481Z,60.20
2019-02-26T05:00:54.411Z,58.30
2019-02-26T05:03:36.412Z,57.00
2019-02-26T05:06:18.286Z,56.20
2019-02-26T05:09:02.853Z,56.10
2019-02-26T05:11:44.289Z,55.00
2019-02-26T05:14:25.986Z,54.30
2019-02-26T05:17:07.598Z,53.60
2019-02-26T05:19:51.562Z,53.30
2019-02-26T05:22:33.554Z,53.00
2019-02-26T05:25:17.655Z,52.10
2019-02-26T05:27:58.787Z,51.60
2019-02-26T05:30:43.247Z,50.90
2019-02-26T05:33:27.445Z,51.10
2019-02-26T05:36:11.520Z,51.20
2019-02-26T05:38:40.843Z,50.60
2019-02-26T05:41:31.690Z,49.60
2019-02-26T05:44:14.859Z,49.90
2019-02-26T05:46:58.698Z,49.60
2019-02-26T05:49:41.455Z,49.80
2019-02-26T05:52:27.363Z,50.10
2019-02-26T05:55:08.658Z,50.00
2019-02-26T05:57:50.723Z,50.20
2019-02-26T06:00:33.231Z,50.30
2019-02-26T06:03:18.265Z,50.50
2019-02-26T06:06:00.489Z,50.40
2019-02-26T06:08:42.802Z,50.80
2019-02-26T06:11:28.358Z,50.60
2019-02-26T06:13:58.941Z,49.40
2019-02-26T06:16:55.736Z,49.00
2019-02-26T06:19:45.867Z,49.50
2019-02-26T06:22:31.213Z,50.30
2019-02-26T06:25:18.435Z,49.70
2019-02-26T06:27:54.755Z,49.40
2019-02-26T06:30:36.897Z,49.10
2019-02-26T06:33:18.646Z,48.70
2019-02-26T06:36:01.663Z,49.20
2019-02-26T06:38:43.714Z,49.90
2019-02-26T06:41:25.815Z,50.30
2019-02-26T06:44:07.947Z,51.00
2019-02-26T06:46:49.738Z,51.00
2019-02-26T06:49:31.374Z,50.30
2019-02-26T06:52:15.371Z,49.60
2019-02-26T06:54:58.070Z,49.10
2019-02-26T06:57:41.466Z,48.30
2019-02-26T07:00:27.027Z,47.30
2019-02-26T07:03:08.511Z,47.10
2019-02-26T07:05:50.494Z,46.70
2019-02-26T07:08:32.198Z,46.40
2019-02-26T07:11:13.974Z,46.70
2019-02-26T07:13:55.794Z,47.10
2019-02-26T07:16:40.342Z,46.50
2019-02-26T07:19:21.718Z,46.80
2019-02-26T07:22:02.214Z,45.00
2019-02-26T07:24:53.866Z,44.20
2019-02-26T07:27:40.846Z,44.00
2019-02-26T07:30:23.154Z,44.00
2019-02-26T07:33:05.777Z,42.90
2019-02-26T07:35:48.423Z,42.70
2019-02-26T07:38:30.291Z,42.40
2019-02-26T07:41:12.299Z,41.70
2019-02-26T07:43:55.215Z,41.60
2019-02-26T07:46:38.522Z,41.30
2019-02-26T07:49:21.217Z,40.80
2019-02-26T07:52:05.869Z,39.90
2019-02-26T07:54:47.558Z,39.10
2019-02-26T07:57:28.958Z,39.60
2019-02-26T08:00:19.526Z,40.70
2019-02-26T08:03:02.101Z,40.40
2019-02-26T08:05:45.318Z,39.70
2019-02-26T08:08:27.521Z,39.20
2019-02-26T08:11:09.546Z,39.70
2019-02-26T08:13:51.744Z,39.90
2019-02-26T08:16:35.351Z,40.00
2019-02-26T08:19:17.230Z,40.60
2019-02-26T08:21:59.326Z,41.40
2019-02-26T08:24:41.466Z,42.20
2019-02-26T08:27:23.419Z,41.60
2019-02-26T08:30:06.856Z,42.10
2019-02-26T08:32:53.445Z,43.10
2019-02-26T08:35:32.895Z,43.60
2019-02-26T08:38:16.329Z,43.40
2019-02-26T08:40:58.382Z,43.40
2019-02-26T08:43:42.142Z,43.90
2019-02-26T08:46:24.045Z,43.50
2019-02-26T08:49:08.593Z,43.60
2019-02-26T08:51:49.191Z,43.90
2019-02-26T08:54:33.311Z,44.60
2019-02-26T08:57:15.490Z,44.50
2019-02-26T08:59:57.674Z,44.50
2019-02-26T09:02:41.057Z,45.60
2019-02-26T09:05:25.713Z,46.30
2019-02-26T09:08:05.948Z,46.50
2019-02-26T09:10:56.530Z,46.50
2019-02-26T09:13:41.181Z,47.20
2019-02-26T09:16:27.381Z,45.40
2019-02-26T09:19:07.508Z,44.40
2019-02-26T09:21:52.302Z,44.50
2019-02-26T09:24:33.550Z,45.60
2019-02-26T09:27:15.627Z,46.70
2019-02-26T09:29:57.922Z,46.60
2019-02-26T09:32:41.709Z,47.00
2019-02-26T09:35:28.116Z,47.70
2019-02-26T09:38:07.202Z,46.80
2019-02-26T09:40:50.035Z,45.10
2019-02-26T09:43:31.502Z,46.00
2019-02-26T09:49:31.440Z,45.20
2019-02-26T09:52:13.340Z,43.40
2019-02-26T09:54:55.463Z,43.40
2019-02-26T09:57:37.318Z,42.60
2019-02-26T10:00:22.861Z,42.10
2019-02-26T10:03:05.301Z,41.10
2019-02-26T10:05:48.250Z,40.90
2019-02-26T10:08:30.564Z,39.30
2019-02-26T10:11:21.218Z,39.10
2019-02-26T10:14:10.192Z,38.70
2019-02-26T10:16:55.168Z,37.40
2019-02-26T10:19:38.705Z,36.60
2019-02-26T10:22:20.562Z,36.40
2019-02-26T10:25:02.250Z,35.70
2019-02-26T10:27:45.458Z,35.50
2019-02-26T10:30:30.457Z,36.10
2019-02-26T10:33:11.065Z,35.40
2019-02-26T10:35:53.235Z,34.90
2019-02-26T10:38:36.507Z,33.80
2019-02-26T10:41:18.530Z,34.80
2019-02-26T10:44:01.107Z,34.70
2019-02-26T10:46:44.538Z,34.40
2019-02-26T10:49:28.626Z,34.10
2019-02-26T10:52:15.947Z,34.10
2019-02-26T10:54:54.548Z,33.60
2019-02-26T10:57:38.441Z,32.80
2019-02-26T11:00:25.274Z,33.40
2019-02-26T11:03:08.927Z,33.00
2019-02-26T11:05:52.218Z,32.10
2019-02-26T11:08:35.144Z,32.00
2019-02-26T11:11:19.004Z,32.20
2019-02-26T11:14:01.268Z,31.10
2019-02-26T11:16:42.898Z,31.30
2019-02-26T11:19:27.239Z,30.00
2019-02-26T11:22:08.793Z,31.30
2019-02-26T11:24:53.308Z,29.60
2019-02-26T11:27:35.770Z,30.00
2019-02-26T11:30:20.576Z,30.10
2019-02-26T11:33:04.777Z,30.30
2019-02-26T11:35:47.193Z,31.40
2019-02-26T11:38:30.162Z,29.40
2019-02-26T11:41:12.654Z,29.10
2019-02-26T11:43:54.746Z,28.40
2019-02-26T11:46:37.066Z,27.10
2019-02-26T11:49:21.669Z,26.60
2019-02-26T11:52:04.515Z,27.30
2019-02-26T11:54:46.351Z,26.20
2019-02-26T11:57:30.219Z,27.00
2019-02-26T12:00:17.753Z,27.00
2019-02-26T12:02:56.792Z,27.70
2019-02-26T12:05:41.847Z,26.70
2019-02-26T12:08:25.048Z,26.60
2019-02-26T12:11:12.035Z,26.60
2019-02-26T12:13:53.020Z,26.10
2019-02-26T12:16:34.211Z,26.60
2019-02-26T12:19:15.810Z,26.30
2019-02-26T12:22:00.795Z,26.30
2019-02-26T12:24:42.156Z,26.80
2019-02-26T12:27:24.183Z,26.70
2019-02-26T12:30:07.216Z,26.30
2019-02-26T12:32:52.496Z,26.40
2019-02-26T12:35:35.806Z,27.00
2019-02-26T12:38:21.304Z,26.40
2019-02-26T12:41:01.610Z,26.80
2019-02-26T12:43:46.355Z,27.20
2019-02-26T12:46:30.938Z,26.90
2019-02-26T12:49:12.642Z,27.10
2019-02-26T12:51:56.681Z,27.30
2019-02-26T12:54:40.843Z,27.40
2019-02-26T12:57:25.948Z,27.20
2019-02-26T13:00:07.331Z,27.20
2019-02-26T13:02:50.006Z,27.40
2019-02-26T13:05:35.229Z,27.70
2019-02-26T13:08:19.418Z,27.70
2019-02-26T13:10:59.666Z,27.40
2019-02-26T13:13:41.867Z,27.30
2019-02-26T13:16:24.069Z,27.50
2019-02-26T13:19:06.070Z,27.90
2019-02-26T13:21:48.053Z,27.80
2019-02-26T13:24:29.839Z,27.40
2019-02-26T13:27:13.794Z,27.40
2019-02-26T13:29:57.223Z,27.80
2019-02-26T13:32:55.286Z,27.40
2019-02-26T13:35:29.000Z,27.30
2019-02-26T13:38:24.761Z,27.50
2019-02-26T13:41:25.201Z,27.70
2019-02-26T13:43:48.890Z,26.90
2019-02-26T13:46:31.323Z,26.90
2019-02-26T13:49:13.114Z,27.30
2019-02-26T13:51:55.190Z,27.50
2019-02-26T13:54:37.262Z,27.50
2019-02-26T13:57:19.197Z,27.80
2019-02-26T14:00:01.962Z,27.50
2019-02-26T14:02:43.602Z,28.00
2019-02-26T14:05:26.010Z,27.60
2019-02-26T14:08:08.122Z,28.10
2019-02-26T14:10:50.098Z,28.20
2019-02-26T14:13:31.794Z,28.40
2019-02-26T14:16:14.221Z,27.80
2019-02-26T14:18:56.054Z,27.10
2019-02-26T14:21:37.994Z,27.60
2019-02-26T14:24:20.722Z,27.50
2019-02-26T14:27:02.928Z,27.50
2019-02-26T14:29:44.958Z,27.00
2019-02-26T14:32:26.653Z,27.00
2019-02-26T14:35:08.907Z,27.30
2019-02-26T14:37:50.822Z,27.50
2019-02-26T14:40:32.731Z,28.30
2019-02-26T14:43:14.498Z,28.00
2019-02-26T14:45:56.350Z,28.20
2019-02-26T14:48:38.208Z,28.20
2019-02-26T14:51:20.267Z,28.40
2019-02-26T14:54:00.950Z,28.40
2019-02-26T14:56:50.373Z,28.70
2019-02-26T14:59:34.279Z,28.80
2019-02-26T15:02:17.639Z,29.00
2019-02-26T15:05:00.207Z,29.00
2019-02-26T15:07:43.498Z,28.70
2019-02-26T15:10:25.450Z,29.30
2019-02-26T15:13:07.311Z,29.70
2019-02-26T15:15:49.410Z,29.50
2019-02-26T15:18:31.289Z,29.50
2019-02-26T15:21:13.174Z,29.60
2019-02-26T15:23:55.356Z,29.90
2019-02-26T15:26:37.539Z,30.10
2019-02-26T15:29:19.752Z,30.80
2019-02-26T15:32:03.340Z,31.00
2019-02-26T15:34:45.611Z,30.30
2019-02-26T15:37:27.538Z,31.30
2019-02-26T15:40:09.658Z,30.60
2019-02-26T15:42:53.097Z,30.80
2019-02-26T15:45:35.214Z,30.80
2019-02-26T15:48:17.078Z,31.20
2019-02-26T15:50:59.234Z,31.00
2019-02-26T15:53:41.314Z,31.20
2019-02-26T15:56:23.676Z,31.40
2019-02-26T15:59:06.238Z,32.30
2019-02-26T16:01:48.196Z,32.40
2019-02-26T16:04:30.126Z,32.50
2019-02-26T16:07:12.004Z,32.80
2019-02-26T16:09:54.307Z,33.10
2019-02-26T16:12:36.010Z,32.80
2019-02-26T16:15:18.298Z,33.10
2019-02-26T16:18:00.139Z,34.00
2019-02-26T16:20:42.018Z,33.90
2019-02-26T16:23:23.780Z,34.10
2019-02-26T16:26:08.054Z,34.30
2019-02-26T16:28:51.319Z,33.80
2019-02-26T16:31:33.374Z,34.10
2019-02-26T16:34:17.432Z,34.80
2019-02-26T16:36:58.887Z,35.00
2019-02-26T16:39:40.948Z,36.50
2019-02-26T16:42:22.954Z,36.30
2019-02-26T16:45:04.874Z,36.70
2019-02-26T16:47:48.715Z,37.10
2019-02-26T16:50:31.359Z,37.50
2019-02-26T16:53:13.478Z,38.10
2019-02-26T16:55:55.938Z,39.00
2019-02-26T16:58:38.366Z,40.40
2019-02-26T17:01:21.805Z,40.70
2019-02-26T17:04:05.567Z,39.40
2019-02-26T17:06:48.557Z,39.20
2019-02-26T17:09:31.185Z,40.90
2019-02-26T17:12:13.742Z,40.10
2019-02-26T17:14:56.050Z,40.40
2019-02-26T17:17:38.514Z,42.30
2019-02-26T17:20:22.645Z,42.20
2019-02-26T17:23:04.885Z,42.20
2019-02-26T17:25:47.227Z,42.60
2019-02-26T17:28:29.379Z,43.50
2019-02-26T17:31:11.507Z,43.80
2019-02-26T17:33:53.642Z,44.80
2019-02-26T17:36:35.996Z,45.40
2019-02-26T17:39:18.103Z,47.00
2019-02-26T17:41:59.906Z,47.20
2019-02-26T17:44:42.091Z,46.80
2019-02-26T17:47:23.901Z,47.80
2019-02-26T17:50:05.902Z,48.80
2019-02-26T17:52:47.842Z,49.60
2019-02-26T17:55:30.037Z,50.60
2019-02-26T17:58:14.214Z,51.70
2019-02-26T18:00:57.090Z,51.50
2019-02-26T18:03:44.572Z,52.20
2019-02-26T18:06:26.195Z,52.60
2019-02-26T18:09:07.998Z,52.80
2019-02-26T18:11:50.327Z,53.40
2019-02-26T18:14:32.998Z,54.10
2019-02-26T18:17:15.467Z,54.70
2019-02-26T18:19:57.439Z,54.80
2019-02-26T18:22:39.667Z,55.10
2019-02-26T18:25:22.147Z,55.70
2019-02-26T18:28:04.098Z,56.10
2019-02-26T18:30:46.110Z,56.40
2019-02-26T18:33:30.034Z,56.80
2019-02-26T18:36:10.440Z,59.40
2019-02-26T18:38:59.761Z,58.50
2019-02-26T18:41:50.516Z,57.80
2019-02-26T18:44:26.258Z,57.80
2019-02-26T18:47:08.045Z,57.60
2019-02-26T18:49:50.015Z,58.00
2019-02-26T18:52:31.850Z,58.60
2019-02-26T18:55:13.606Z,58.70
2019-02-26T18:57:55.977Z,59.20
2019-02-26T19:00:37.647Z,59.10
2019-02-26T19:03:19.378Z,59.20
2019-02-26T19:06:01.465Z,59.30
2019-02-26T19:08:43.522Z,59.00
2019-02-26T19:11:25.615Z,59.70
2019-02-26T19:14:09.170Z,59.90
2019-02-26T19:16:54.906Z,60.00
2019-02-26T19:19:35.130Z,59.80
2019-02-26T19:22:17.810Z,59.60
2019-02-26T19:24:59.463Z,59.40
2019-02-26T19:27:42.308Z,59.30
2019-02-26T19:30:23.997Z,59.70
2019-02-26T19:33:05.866Z,60.00
2019-02-26T19:35:47.573Z,62.20
2019-02-26T19:38:29.998Z,61.70
2019-02-26T19:41:12.651Z,59.80
2019-02-26T19:43:57.574Z,59.60
2019-02-26T19:46:38.930Z,60.00
2019-02-26T19:49:20.911Z,57.80
2019-02-26T19:52:02.987Z,57.30
2019-02-26T19:54:44.722Z,57.10
2019-02-26T19:57:15.079Z,57.10
2019-02-26T20:00:05.878Z,57.20
2019-02-26T20:02:50.234Z,57.10
2019-02-26T20:05:32.626Z,56.50
2019-02-26T20:08:14.453Z,56.00
2019-02-26T20:10:57.801Z,56.00
2019-02-26T20:13:42.133Z,56.10
2019-02-26T20:16:27.604Z,55.90
2019-02-26T20:19:07.807Z,54.90
2019-02-26T20:21:38.370Z,53.80
2019-02-26T20:24:32.894Z,52.70
2019-02-26T20:27:15.954Z,52.00
2019-02-26T20:29:58.060Z,51.60
2019-02-26T20:32:40.113Z,51.10
2019-02-26T20:35:22.232Z,50.60
2019-02-26T20:38:05.238Z,50.10
2019-02-26T20:40:48.612Z,50.10
2019-02-26T20:45:51.073Z,49.90
2019-02-26T20:48:36.548Z,49.50
2019-02-26T20:51:18.746Z,49.60
2019-02-26T20:54:00.754Z,49.50
2019-02-26T20:56:42.507Z,49.50
2019-02-26T20:59:24.399Z,49.20
2019-02-26T21:02:06.810Z,49.10
2019-02-26T21:04:49.678Z,49.20
2019-02-26T21:07:31.952Z,49.50
2019-02-26T21:10:15.271Z,49.80
2019-02-26T21:13:01.612Z,50.20
2019-02-26T21:15:41.839Z,50.10
2019-02-26T21:18:24.694Z,50.00
2019-02-26T21:21:07.274Z,49.90
2019-02-26T21:23:49.922Z,50.00
2019-02-26T21:26:32.330Z,50.00
2019-02-26T21:29:15.011Z,50.30
2019-02-26T21:31:57.262Z,50.30
2019-02-26T21:34:39.935Z,50.40
2019-02-26T21:37:21.789Z,50.40
2019-02-26T21:40:03.773Z,50.30
2019-02-26T21:42:45.509Z,50.50
2019-02-26T21:45:29.202Z,50.50
2019-02-26T21:48:11.938Z,50.70
2019-02-26T21:50:54.856Z,50.70
2019-02-26T21:53:37.020Z,50.70
2019-02-26T21:56:18.687Z,50.80
2019-02-26T21:59:00.526Z,50.80
2019-02-26T22:01:45.865Z,51.10
2019-02-26T22:04:26.822Z,51.10
2019-02-26T22:07:07.241Z,51.20
2019-02-26T22:09:56.574Z,51.60
2019-02-26T22:12:44.465Z,52.20
2019-02-26T22:15:29.335Z,52.10
2019-02-26T22:18:11.446Z,52.30
2019-02-26T22:20:53.238Z,52.20
2019-02-26T22:23:35.174Z,52.30
2019-02-26T22:26:16.882Z,51.30
2019-02-26T22:28:58.839Z,51.50
2019-02-26T22:31:40.575Z,51.40
2019-02-26T22:34:20.978Z,51.20
2019-02-26T22:37:10.362Z,50.90
2019-02-26T22:39:55.857Z,50.80
2019-02-26T22:42:38.815Z,51.20
2019-02-26T22:45:22.180Z,51.50
2019-02-26T22:48:04.827Z,51.30
2019-02-26T22:50:46.455Z,51.70
2019-02-26T22:53:28.626Z,51.90
2019-02-26T22:56:10.302Z,51.80
2019-02-26T22:58:52.290Z,52.20
2019-02-26T23:04:35.582Z,51.90
2019-02-26T23:07:17.659Z,51.80
2019-02-26T23:10:00.418Z,51.90
2019-02-26T23:12:42.523Z,52.40
2019-02-26T23:15:24.650Z,52.20
2019-02-26T23:18:06.781Z,51.40
2019-02-26T23:20:48.798Z,51.60
2019-02-26T23:23:31.071Z,52.00
2019-02-26T23:26:12.882Z,52.00
2019-02-26T23:28:55.456Z,52.50
2019-02-26T23:31:37.911Z,55.20
2019-02-26T23:34:21.881Z,53.90
2019-02-26T23:37:03.105Z,54.30
2019-02-26T23:39:44.808Z,53.40
2019-02-26T23:42:26.367Z,54.60
2019-02-26T23:45:08.178Z,54.90
2019-02-26T23:47:50.038Z,55.30
2019-02-26T23:50:31.782Z,54.30
2019-02-26T23:53:13.653Z,54.40
2019-02-26T23:55:55.267Z,55.00
2019-02-26T23:58:36.983Z,55.40
